Willow Run Airport Detroit US
ICAO: KYIP
IATA: YIP
Category: Medium
Scheduled Services: No

Elevation: 716 ft
TransAlt. 18000 ft.

Airport Communications:
DETROIT APP/DEP:118.95
ASOS:132.35
ATIS:127.425
GND:121.75
TWR:125.275

KYIP Zoom In..

Runways:

(A) RW 05L length 5996 ft width 160 ft
---- / hdg 53

(B) RW 05R length 7543 ft width 160 ft
ILS 109.50 / hdg 53

(C) RW 09 length 7292 ft width 160 ft
---- / hdg 95

(D) RW 14 length 6312 ft width 160 ft
---- / hdg 142

(E) RW 23L length 7543 ft width 160 ft
ILS 109.50 / hdg 233

(F) RW 23R length 5996 ft width 160 ft
---- / hdg 233

(G) RW 27 length 7292 ft width 160 ft
---- / hdg 275

(H) RW 32 length 6312 ft width 160 ft
---- / hdg 322

Location; KYIP
Day. 22 / Time. 23.53 Zulu
* Altimeter: 29.61
* Temperature: 11° c. 51.8°f.
* Wind from: 170° Speed 11 kn.
Dewpoint: 08° c.
Visibility: 10 Statute Miles.
Clouds: Overcast 2300 ft.

KYIP 222353Z 17011KT 10SM OVC023 11/08 A2961 RMK AO2 SLP028 60002 T01060083 10133 20100 56006


Wind From 170°
Speed 11 kn.

YouTube Music Video
 
jpsmedia.com for Web Design  worldairports.se 2018   terms of use